sensor_id;sensor_type;location;lat;lon;timestamp;temperature;humidity
52203;DHT22;38173;52.850;6.970;2024-01-27T00:00:06;2.50;99.90
52203;DHT22;38173;52.850;6.970;2024-01-27T00:02:32;2.50;99.90
52203;DHT22;38173;52.850;6.970;2024-01-27T00:04:57;2.40;99.90
52203;DHT22;38173;52.850;6.970;2024-01-27T00:07:23;2.40;99.90
52203;DHT22;38173;52.850;6.970;2024-01-27T00:09:50;2.40;99.90
52203;DHT22;38173;52.850;6.970;2024-01-27T00:12:17;2.30;99.90
52203;DHT22;38173;52.850;6.970;2024-01-27T00:14:42;2.40;99.90
52203;DHT22;38173;52.850;6.970;2024-01-27T00:17:09;2.40;99.90
52203;DHT22;38173;52.850;6.970;2024-01-27T00:19:34;2.40;99.90
52203;DHT22;38173;52.850;6.970;2024-01-27T00:22:00;2.40;99.90
52203;DHT22;38173;52.850;6.970;2024-01-27T00:24:26;2.40;99.90
52203;DHT22;38173;52.850;6.970;2024-01-27T00:26:51;2.40;99.90
52203;DHT22;38173;52.850;6.970;2024-01-27T00:29:20;2.30;99.90
52203;DHT22;38173;52.850;6.970;2024-01-27T00:31:46;2.30;99.90
52203;DHT22;38173;52.850;6.970;2024-01-27T00:34:12;2.40;99.90
52203;DHT22;38173;52.850;6.970;2024-01-27T00:36:37;2.40;99.90
52203;DHT22;38173;52.850;6.970;2024-01-27T00:39:04;2.30;99.90
52203;DHT22;38173;52.850;6.970;2024-01-27T00:41:30;2.40;99.90
52203;DHT22;38173;52.850;6.970;2024-01-27T00:43:55;2.40;99.90
52203;DHT22;38173;52.850;6.970;2024-01-27T00:46:21;2.50;99.90
52203;DHT22;38173;52.850;6.970;2024-01-27T00:48:48;2.50;99.90
52203;DHT22;38173;52.850;6.970;2024-01-27T00:51:14;2.50;99.90
52203;DHT22;38173;52.850;6.970;2024-01-27T00:53:40;2.50;99.90
52203;DHT22;38173;52.850;6.970;2024-01-27T00:56:06;2.50;99.90
52203;DHT22;38173;52.850;6.970;2024-01-27T00:58:32;2.50;99.90
52203;DHT22;38173;52.850;6.970;2024-01-27T01:00:58;2.50;99.90
52203;DHT22;38173;52.850;6.970;2024-01-27T01:03:26;2.60;99.90
52203;DHT22;38173;52.850;6.970;2024-01-27T01:05:52;2.60;99.90
52203;DHT22;38173;52.850;6.970;2024-01-27T01:08:18;2.60;99.90
52203;DHT22;38173;52.850;6.970;2024-01-27T01:10:44;2.60;99.90
52203;DHT22;38173;52.850;6.970;2024-01-27T01:13:09;2.60;99.90
52203;DHT22;38173;52.850;6.970;2024-01-27T01:15:35;2.70;99.90
52203;DHT22;38173;52.850;6.970;2024-01-27T01:18:01;2.70;99.90
52203;DHT22;38173;52.850;6.970;2024-01-27T01:20:26;2.80;99.90
52203;DHT22;38173;52.850;6.970;2024-01-27T01:22:53;2.80;99.90
52203;DHT22;38173;52.850;6.970;2024-01-27T01:25:18;2.80;99.90
52203;DHT22;38173;52.850;6.970;2024-01-27T01:27:45;2.70;99.90
52203;DHT22;38173;52.850;6.970;2024-01-27T01:30:12;2.70;99.90
52203;DHT22;38173;52.850;6.970;2024-01-27T01:32:38;2.70;99.90
52203;DHT22;38173;52.850;6.970;2024-01-27T01:35:04;2.60;99.90
52203;DHT22;38173;52.850;6.970;2024-01-27T01:37:30;2.60;99.90
52203;DHT22;38173;52.850;6.970;2024-01-27T01:39:55;2.60;99.90
52203;DHT22;38173;52.850;6.970;2024-01-27T01:42:21;2.60;99.90
52203;DHT22;38173;52.850;6.970;2024-01-27T01:44:51;2.70;99.90
52203;DHT22;38173;52.850;6.970;2024-01-27T01:47:17;2.70;99.90
52203;DHT22;38173;52.850;6.970;2024-01-27T01:49:43;2.70;99.90
52203;DHT22;38173;52.850;6.970;2024-01-27T01:52:09;2.60;99.90
52203;DHT22;38173;52.850;6.970;2024-01-27T01:54:35;2.60;99.90
52203;DHT22;38173;52.850;6.970;2024-01-27T01:57:00;2.60;99.90
52203;DHT22;38173;52.850;6.970;2024-01-27T01:59:30;2.60;99.90
52203;DHT22;38173;52.850;6.970;2024-01-27T02:01:55;2.60;99.90
52203;DHT22;38173;52.850;6.970;2024-01-27T02:04:21;2.50;99.90
52203;DHT22;38173;52.850;6.970;2024-01-27T02:06:47;2.50;99.90
52203;DHT22;38173;52.850;6.970;2024-01-27T02:09:13;2.50;99.90
52203;DHT22;38173;52.850;6.970;2024-01-27T02:11:38;2.50;99.90
52203;DHT22;38173;52.850;6.970;2024-01-27T02:14:04;2.50;99.90
52203;DHT22;38173;52.850;6.970;2024-01-27T02:16:30;2.50;99.90
52203;DHT22;38173;52.850;6.970;2024-01-27T02:18:55;2.40;99.90
52203;DHT22;38173;52.850;6.970;2024-01-27T02:21:21;2.40;99.90
52203;DHT22;38173;52.850;6.970;2024-01-27T02:23:47;2.40;99.90
52203;DHT22;38173;52.850;6.970;2024-01-27T02:26:12;2.40;99.90
52203;DHT22;38173;52.850;6.970;2024-01-27T02:28:38;2.40;99.90
52203;DHT22;38173;52.850;6.970;2024-01-27T02:31:04;2.30;99.90
52203;DHT22;38173;52.850;6.970;2024-01-27T02:33:30;2.30;99.90
52203;DHT22;38173;52.850;6.970;2024-01-27T02:35:55;2.20;99.90
52203;DHT22;38173;52.850;6.970;2024-01-27T02:38:21;2.20;99.90
52203;DHT22;38173;52.850;6.970;2024-01-27T02:40:47;2.20;99.90
52203;DHT22;38173;52.850;6.970;2024-01-27T02:43:12;2.20;99.90
52203;DHT22;38173;52.850;6.970;2024-01-27T02:45:38;2.30;99.90
52203;DHT22;38173;52.850;6.970;2024-01-27T02:48:04;2.20;99.90
52203;DHT22;38173;52.850;6.970;2024-01-27T02:50:30;2.20;99.90
52203;DHT22;38173;52.850;6.970;2024-01-27T02:52:57;2.20;99.90
52203;DHT22;38173;52.850;6.970;2024-01-27T02:55:23;2.20;99.90
52203;DHT22;38173;52.850;6.970;2024-01-27T02:57:48;2.20;99.90
52203;DHT22;38173;52.850;6.970;2024-01-27T03:00:14;2.10;99.90
52203;DHT22;38173;52.850;6.970;2024-01-27T03:02:40;2.20;99.90
52203;DHT22;38173;52.850;6.970;2024-01-27T03:05:06;2.10;99.90
52203;DHT22;38173;52.850;6.970;2024-01-27T03:07:33;2.10;99.90
52203;DHT22;38173;52.850;6.970;2024-01-27T03:09:58;2.10;99.90
52203;DHT22;38173;52.850;6.970;2024-01-27T03:12:24;2.10;99.90
52203;DHT22;38173;52.850;6.970;2024-01-27T03:14:50;2.10;99.90
52203;DHT22;38173;52.850;6.970;2024-01-27T03:17:16;2.10;99.90
52203;DHT22;38173;52.850;6.970;2024-01-27T03:19:42;2.00;99.90
52203;DHT22;38173;52.850;6.970;2024-01-27T03:22:07;2.00;99.90
52203;DHT22;38173;52.850;6.970;2024-01-27T03:24:33;1.90;99.90
52203;DHT22;38173;52.850;6.970;2024-01-27T03:27:00;2.00;99.90
52203;DHT22;38173;52.850;6.970;2024-01-27T03:29:25;2.00;99.90
52203;DHT22;38173;52.850;6.970;2024-01-27T03:31:51;2.00;99.90
52203;DHT22;38173;52.850;6.970;2024-01-27T03:34:17;2.00;99.90
52203;DHT22;38173;52.850;6.970;2024-01-27T03:36:44;2.00;99.90
52203;DHT22;38173;52.850;6.970;2024-01-27T03:39:12;1.90;99.90
52203;DHT22;38173;52.850;6.970;2024-01-27T03:41:38;1.90;99.90
52203;DHT22;38173;52.850;6.970;2024-01-27T03:44:04;1.80;99.90
52203;DHT22;38173;52.850;6.970;2024-01-27T03:46:29;1.80;99.90
52203;DHT22;38173;52.850;6.970;2024-01-27T03:48:55;1.70;99.90
52203;DHT22;38173;52.850;6.970;2024-01-27T03:51:21;1.70;99.90
52203;DHT22;38173;52.850;6.970;2024-01-27T03:53:48;1.70;99.90
52203;DHT22;38173;52.850;6.970;2024-01-27T03:56:14;1.70;99.90
52203;DHT22;38173;52.850;6.970;2024-01-27T03:58:39;1.60;99.90
52203;DHT22;38173;52.850;6.970;2024-01-27T04:01:08;1.60;99.90
52203;DHT22;38173;52.850;6.970;2024-01-27T04:03:34;1.60;99.90
52203;DHT22;38173;52.850;6.970;2024-01-27T04:05:59;1.50;99.90
52203;DHT22;38173;52.850;6.970;2024-01-27T04:08:29;1.50;99.90
52203;DHT22;38173;52.850;6.970;2024-01-27T04:10:55;1.40;99.90
52203;DHT22;38173;52.850;6.970;2024-01-27T04:13:21;1.40;99.90
52203;DHT22;38173;52.850;6.970;2024-01-27T04:15:46;1.30;99.90
52203;DHT22;38173;52.850;6.970;2024-01-27T04:18:15;1.30;99.90
52203;DHT22;38173;52.850;6.970;2024-01-27T04:20:41;1.30;99.90
52203;DHT22;38173;52.850;6.970;2024-01-27T04:23:06;1.30;99.90
52203;DHT22;38173;52.850;6.970;2024-01-27T04:25:32;1.30;99.90
52203;DHT22;38173;52.850;6.970;2024-01-27T04:27:58;1.20;99.90
52203;DHT22;38173;52.850;6.970;2024-01-27T04:30:24;1.20;99.90
52203;DHT22;38173;52.850;6.970;2024-01-27T04:32:50;1.20;99.90
52203;DHT22;38173;52.850;6.970;2024-01-27T04:35:17;1.20;99.90
52203;DHT22;38173;52.850;6.970;2024-01-27T04:37:44;1.20;99.90
52203;DHT22;38173;52.850;6.970;2024-01-27T04:40:11;1.20;99.90
52203;DHT22;38173;52.850;6.970;2024-01-27T04:42:38;1.20;99.90
52203;DHT22;38173;52.850;6.970;2024-01-27T04:45:05;1.10;99.90
52203;DHT22;38173;52.850;6.970;2024-01-27T04:47:31;1.20;99.90
52203;DHT22;38173;52.850;6.970;2024-01-27T04:49:57;1.20;99.90
52203;DHT22;38173;52.850;6.970;2024-01-27T04:52:23;1.20;99.90
52203;DHT22;38173;52.850;6.970;2024-01-27T04:54:49;1.20;99.90
52203;DHT22;38173;52.850;6.970;2024-01-27T04:57:16;1.20;99.90
52203;DHT22;38173;52.850;6.970;2024-01-27T04:59:41;1.20;99.90
52203;DHT22;38173;52.850;6.970;2024-01-27T05:02:07;1.30;99.90
52203;DHT22;38173;52.850;6.970;2024-01-27T05:04:34;1.30;99.90
52203;DHT22;38173;52.850;6.970;2024-01-27T05:06:59;1.50;99.90
52203;DHT22;38173;52.850;6.970;2024-01-27T05:09:25;1.50;99.90
52203;DHT22;38173;52.850;6.970;2024-01-27T05:11:51;1.50;99.90
52203;DHT22;38173;52.850;6.970;2024-01-27T05:14:20;1.60;99.90
52203;DHT22;38173;52.850;6.970;2024-01-27T05:16:45;1.50;99.90
52203;DHT22;38173;52.850;6.970;2024-01-27T05:19:11;1.60;99.90
52203;DHT22;38173;52.850;6.970;2024-01-27T05:21:37;1.50;99.90
52203;DHT22;38173;52.850;6.970;2024-01-27T05:24:04;1.50;99.90
52203;DHT22;38173;52.850;6.970;2024-01-27T05:26:29;1.40;99.90
52203;DHT22;38173;52.850;6.970;2024-01-27T05:28:55;1.40;99.90
52203;DHT22;38173;52.850;6.970;2024-01-27T05:31:21;1.30;99.90
52203;DHT22;38173;52.850;6.970;2024-01-27T05:33:46;1.30;99.90
52203;DHT22;38173;52.850;6.970;2024-01-27T05:36:12;1.30;99.90
52203;DHT22;38173;52.850;6.970;2024-01-27T05:38:38;1.20;99.90
52203;DHT22;38173;52.850;6.970;2024-01-27T05:41:03;1.20;99.90
52203;DHT22;38173;52.850;6.970;2024-01-27T05:43:29;1.20;99.90
52203;DHT22;38173;52.850;6.970;2024-01-27T05:45:55;1.10;99.90
52203;DHT22;38173;52.850;6.970;2024-01-27T05:48:21;1.10;99.90
52203;DHT22;38173;52.850;6.970;2024-01-27T05:51:00;1.20;99.90
52203;DHT22;38173;52.850;6.970;2024-01-27T05:53:26;1.10;99.90
52203;DHT22;38173;52.850;6.970;2024-01-27T05:55:52;1.10;99.90
52203;DHT22;38173;52.850;6.970;2024-01-27T05:58:19;1.10;99.90
52203;DHT22;38173;52.850;6.970;2024-01-27T06:00:48;1.10;99.90
52203;DHT22;38173;52.850;6.970;2024-01-27T06:03:13;1.10;99.90
52203;DHT22;38173;52.850;6.970;2024-01-27T06:05:41;1.10;99.90
52203;DHT22;38173;52.850;6.970;2024-01-27T06:08:07;1.10;99.90
52203;DHT22;38173;52.850;6.970;2024-01-27T06:10:33;1.10;99.90
52203;DHT22;38173;52.850;6.970;2024-01-27T06:12:59;1.10;99.90
52203;DHT22;38173;52.850;6.970;2024-01-27T06:15:25;1.10;99.90
52203;DHT22;38173;52.850;6.970;2024-01-27T06:17:50;1.10;99.90
52203;DHT22;38173;52.850;6.970;2024-01-27T06:20:16;1.10;99.90
52203;DHT22;38173;52.850;6.970;2024-01-27T06:22:43;1.20;99.90
52203;DHT22;38173;52.850;6.970;2024-01-27T06:25:11;1.10;99.90
52203;DHT22;38173;52.850;6.970;2024-01-27T06:27:37;1.10;99.90
52203;DHT22;38173;52.850;6.970;2024-01-27T06:30:04;1.10;99.90
52203;DHT22;38173;52.850;6.970;2024-01-27T06:32:31;1.10;99.90
52203;DHT22;38173;52.850;6.970;2024-01-27T06:34:56;1.10;99.90
52203;DHT22;38173;52.850;6.970;2024-01-27T06:37:22;1.10;99.90
52203;DHT22;38173;52.850;6.970;2024-01-27T06:39:48;1.10;99.90
52203;DHT22;38173;52.850;6.970;2024-01-27T06:42:13;1.10;99.90
52203;DHT22;38173;52.850;6.970;2024-01-27T06:44:39;1.00;99.90
52203;DHT22;38173;52.850;6.970;2024-01-27T06:47:05;1.10;99.90
52203;DHT22;38173;52.850;6.970;2024-01-27T06:49:30;1.10;99.90
52203;DHT22;38173;52.850;6.970;2024-01-27T06:51:56;1.10;99.90
52203;DHT22;38173;52.850;6.970;2024-01-27T06:54:21;1.10;99.90
52203;DHT22;38173;52.850;6.970;2024-01-27T06:56:47;1.10;99.90
52203;DHT22;38173;52.850;6.970;2024-01-27T06:59:13;1.10;99.90
52203;DHT22;38173;52.850;6.970;2024-01-27T07:01:38;1.10;99.90
52203;DHT22;38173;52.850;6.970;2024-01-27T07:04:05;1.00;99.90
52203;DHT22;38173;52.850;6.970;2024-01-27T07:06:31;1.10;99.90
52203;DHT22;38173;52.850;6.970;2024-01-27T07:08:56;1.00;99.90
52203;DHT22;38173;52.850;6.970;2024-01-27T07:11:22;1.00;99.90
52203;DHT22;38173;52.850;6.970;2024-01-27T07:13:47;0.90;99.90
52203;DHT22;38173;52.850;6.970;2024-01-27T07:16:13;0.90;99.90
52203;DHT22;38173;52.850;6.970;2024-01-27T07:18:39;0.80;99.90
52203;DHT22;38173;52.850;6.970;2024-01-27T07:21:04;0.80;99.90
52203;DHT22;38173;52.850;6.970;2024-01-27T07:23:30;0.80;99.90
52203;DHT22;38173;52.850;6.970;2024-01-27T07:25:56;0.80;99.90
52203;DHT22;38173;52.850;6.970;2024-01-27T07:28:22;0.80;99.90
52203;DHT22;38173;52.850;6.970;2024-01-27T07:30:48;0.70;99.90
52203;DHT22;38173;52.850;6.970;2024-01-27T07:33:14;0.70;99.90
52203;DHT22;38173;52.850;6.970;2024-01-27T07:35:40;0.70;99.90
52203;DHT22;38173;52.850;6.970;2024-01-27T07:38:06;0.70;99.90
52203;DHT22;38173;52.850;6.970;2024-01-27T07:40:31;0.70;99.90
52203;DHT22;38173;52.850;6.970;2024-01-27T07:42:57;0.80;99.90
52203;DHT22;38173;52.850;6.970;2024-01-27T07:45:23;0.80;99.90
52203;DHT22;38173;52.850;6.970;2024-01-27T07:47:50;0.80;99.90
52203;DHT22;38173;52.850;6.970;2024-01-27T07:50:17;0.80;99.90
52203;DHT22;38173;52.850;6.970;2024-01-27T07:52:43;0.80;99.90
52203;DHT22;38173;52.850;6.970;2024-01-27T07:55:09;0.90;99.90
52203;DHT22;38173;52.850;6.970;2024-01-27T07:57:36;0.90;99.90
52203;DHT22;38173;52.850;6.970;2024-01-27T08:00:02;1.00;99.90
52203;DHT22;38173;52.850;6.970;2024-01-27T08:02:27;1.00;99.90
52203;DHT22;38173;52.850;6.970;2024-01-27T08:04:53;1.00;99.90
52203;DHT22;38173;52.850;6.970;2024-01-27T08:07:19;1.20;99.90
52203;DHT22;38173;52.850;6.970;2024-01-27T08:09:44;1.30;99.90
52203;DHT22;38173;52.850;6.970;2024-01-27T08:12:10;1.30;99.90
52203;DHT22;38173;52.850;6.970;2024-01-27T08:14:36;1.40;99.90
52203;DHT22;38173;52.850;6.970;2024-01-27T08:17:02;1.40;99.90
52203;DHT22;38173;52.850;6.970;2024-01-27T08:19:29;1.50;99.90
52203;DHT22;38173;52.850;6.970;2024-01-27T08:21:55;1.50;99.90
52203;DHT22;38173;52.850;6.970;2024-01-27T08:24:21;1.50;99.90
52203;DHT22;38173;52.850;6.970;2024-01-27T08:26:49;1.60;99.90
52203;DHT22;38173;52.850;6.970;2024-01-27T08:29:15;1.60;99.90
52203;DHT22;38173;52.850;6.970;2024-01-27T08:31:41;1.70;99.90
52203;DHT22;38173;52.850;6.970;2024-01-27T08:34:07;1.70;99.90
52203;DHT22;38173;52.850;6.970;2024-01-27T08:36:34;1.70;99.90
52203;DHT22;38173;52.850;6.970;2024-01-27T08:39:00;1.80;99.90
52203;DHT22;38173;52.850;6.970;2024-01-27T08:41:26;1.90;99.90
52203;DHT22;38173;52.850;6.970;2024-01-27T08:43:51;1.90;99.90
52203;DHT22;38173;52.850;6.970;2024-01-27T08:46:17;2.00;99.90
52203;DHT22;38173;52.850;6.970;2024-01-27T08:48:46;2.10;99.90
52203;DHT22;38173;52.850;6.970;2024-01-27T08:51:11;2.10;99.90
52203;DHT22;38173;52.850;6.970;2024-01-27T08:53:38;2.20;99.90
52203;DHT22;38173;52.850;6.970;2024-01-27T08:56:04;2.30;99.90
52203;DHT22;38173;52.850;6.970;2024-01-27T08:58:31;2.30;99.90
52203;DHT22;38173;52.850;6.970;2024-01-27T09:00:57;2.40;99.90
52203;DHT22;38173;52.850;6.970;2024-01-27T09:03:23;2.50;99.90
52203;DHT22;38173;52.850;6.970;2024-01-27T09:05:49;2.50;99.90
52203;DHT22;38173;52.850;6.970;2024-01-27T09:08:15;2.60;99.90
52203;DHT22;38173;52.850;6.970;2024-01-27T09:10:41;2.70;99.90
52203;DHT22;38173;52.850;6.970;2024-01-27T09:13:07;2.80;99.90
52203;DHT22;38173;52.850;6.970;2024-01-27T09:15:33;2.90;99.90
52203;DHT22;38173;52.850;6.970;2024-01-27T09:17:58;2.90;99.90
52203;DHT22;38173;52.850;6.970;2024-01-27T09:20:24;3.00;99.90
52203;DHT22;38173;52.850;6.970;2024-01-27T09:22:50;3.00;99.90
52203;DHT22;38173;52.850;6.970;2024-01-27T09:25:17;3.10;99.90
52203;DHT22;38173;52.850;6.970;2024-01-27T09:27:43;3.20;99.90
52203;DHT22;38173;52.850;6.970;2024-01-27T09:30:09;3.30;99.90
52203;DHT22;38173;52.850;6.970;2024-01-27T09:32:35;3.40;99.90
52203;DHT22;38173;52.850;6.970;2024-01-27T09:35:01;3.50;99.90
52203;DHT22;38173;52.850;6.970;2024-01-27T09:37:26;3.50;99.90
52203;DHT22;38173;52.850;6.970;2024-01-27T09:39:52;3.60;99.90
52203;DHT22;38173;52.850;6.970;2024-01-27T09:42:20;3.70;99.90
52203;DHT22;38173;52.850;6.970;2024-01-27T09:44:48;3.70;99.90
52203;DHT22;38173;52.850;6.970;2024-01-27T09:47:15;3.80;99.90
52203;DHT22;38173;52.850;6.970;2024-01-27T09:49:42;3.90;99.90
52203;DHT22;38173;52.850;6.970;2024-01-27T09:52:08;4.00;99.90
52203;DHT22;38173;52.850;6.970;2024-01-27T09:54:35;4.10;99.90
52203;DHT22;38173;52.850;6.970;2024-01-27T09:57:02;4.20;99.90
52203;DHT22;38173;52.850;6.970;2024-01-27T09:59:32;4.30;99.90
52203;DHT22;38173;52.850;6.970;2024-01-27T10:01:59;4.30;99.90
52203;DHT22;38173;52.850;6.970;2024-01-27T10:04:27;4.40;99.90
52203;DHT22;38173;52.850;6.970;2024-01-27T10:06:53;4.50;99.90
52203;DHT22;38173;52.850;6.970;2024-01-27T10:09:21;4.60;99.90
52203;DHT22;38173;52.850;6.970;2024-01-27T10:11:47;4.70;99.90
52203;DHT22;38173;52.850;6.970;2024-01-27T10:14:13;4.70;99.90
52203;DHT22;38173;52.850;6.970;2024-01-27T10:16:45;4.90;99.90
52203;DHT22;38173;52.850;6.970;2024-01-27T10:19:18;5.00;99.90
52203;DHT22;38173;52.850;6.970;2024-01-27T10:21:48;5.20;99.90
52203;DHT22;38173;52.850;6.970;2024-01-27T10:24:14;5.30;99.90
52203;DHT22;38173;52.850;6.970;2024-01-27T10:26:40;5.20;99.90
52203;DHT22;38173;52.850;6.970;2024-01-27T10:29:06;5.10;99.90
52203;DHT22;38173;52.850;6.970;2024-01-27T10:31:35;5.10;99.90
52203;DHT22;38173;52.850;6.970;2024-01-27T10:34:19;5.20;99.90
52203;DHT22;38173;52.850;6.970;2024-01-27T10:36:48;5.20;99.90
52203;DHT22;38173;52.850;6.970;2024-01-27T10:39:23;5.20;99.90
52203;DHT22;38173;52.850;6.970;2024-01-27T10:41:50;5.30;99.90
52203;DHT22;38173;52.850;6.970;2024-01-27T10:44:17;5.40;99.90
52203;DHT22;38173;52.850;6.970;2024-01-27T10:46:45;5.50;99.90
52203;DHT22;38173;52.850;6.970;2024-01-27T10:49:18;5.60;99.90
52203;DHT22;38173;52.850;6.970;2024-01-27T10:51:46;5.60;99.90
52203;DHT22;38173;52.850;6.970;2024-01-27T10:54:25;5.70;99.90
52203;DHT22;38173;52.850;6.970;2024-01-27T10:56:58;6.00;99.90
52203;DHT22;38173;52.850;6.970;2024-01-27T10:59:26;6.10;99.90
52203;DHT22;38173;52.850;6.970;2024-01-27T11:01:52;6.20;99.90
52203;DHT22;38173;52.850;6.970;2024-01-27T11:04:20;6.20;99.90
52203;DHT22;38173;52.850;6.970;2024-01-27T11:06:50;6.20;99.90
52203;DHT22;38173;52.850;6.970;2024-01-27T11:09:18;6.20;99.90
52203;DHT22;38173;52.850;6.970;2024-01-27T11:11:45;6.20;99.90
52203;DHT22;38173;52.850;6.970;2024-01-27T11:14:12;6.40;99.90
52203;DHT22;38173;52.850;6.970;2024-01-27T11:16:37;6.60;99.90
52203;DHT22;38173;52.850;6.970;2024-01-27T11:19:12;6.70;99.90
52203;DHT22;38173;52.850;6.970;2024-01-27T11:21:38;6.60;99.90
52203;DHT22;38173;52.850;6.970;2024-01-27T11:24:17;6.60;99.90
52203;DHT22;38173;52.850;6.970;2024-01-27T11:26:43;6.50;99.90
52203;DHT22;38173;52.850;6.970;2024-01-27T11:29:09;6.50;99.90
52203;DHT22;38173;52.850;6.970;2024-01-27T11:31:44;6.50;99.90
52203;DHT22;38173;52.850;6.970;2024-01-27T11:34:10;6.60;99.90
52203;DHT22;38173;52.850;6.970;2024-01-27T11:36:43;6.70;99.90
52203;DHT22;38173;52.850;6.970;2024-01-27T11:39:29;6.90;99.90
52203;DHT22;38173;52.850;6.970;2024-01-27T11:42:09;6.80;99.90
52203;DHT22;38173;52.850;6.970;2024-01-27T11:44:36;6.80;99.90
52203;DHT22;38173;52.850;6.970;2024-01-27T11:47:03;6.80;99.90
52203;DHT22;38173;52.850;6.970;2024-01-27T11:49:30;6.70;99.90
52203;DHT22;38173;52.850;6.970;2024-01-27T11:51:55;6.80;99.90
52203;DHT22;38173;52.850;6.970;2024-01-27T11:54:21;6.90;99.90
52203;DHT22;38173;52.850;6.970;2024-01-27T11:56:47;7.00;99.90
52203;DHT22;38173;52.850;6.970;2024-01-27T11:59:13;7.00;99.90
52203;DHT22;38173;52.850;6.970;2024-01-27T12:01:40;7.00;99.90
52203;DHT22;38173;52.850;6.970;2024-01-27T12:04:06;7.00;99.90
52203;DHT22;38173;52.850;6.970;2024-01-27T12:06:31;7.00;99.90
52203;DHT22;38173;52.850;6.970;2024-01-27T12:08:57;7.00;99.90
52203;DHT22;38173;52.850;6.970;2024-01-27T12:11:26;7.00;99.90
52203;DHT22;38173;52.850;6.970;2024-01-27T12:13:53;7.00;99.90
52203;DHT22;38173;52.850;6.970;2024-01-27T12:16:20;7.10;99.90
52203;DHT22;38173;52.850;6.970;2024-01-27T12:18:45;7.10;99.90
52203;DHT22;38173;52.850;6.970;2024-01-27T12:21:11;7.10;99.90
52203;DHT22;38173;52.850;6.970;2024-01-27T12:23:51;7.10;99.90
52203;DHT22;38173;52.850;6.970;2024-01-27T12:26:16;7.10;99.90
52203;DHT22;38173;52.850;6.970;2024-01-27T12:28:46;7.20;99.90
52203;DHT22;38173;52.850;6.970;2024-01-27T12:31:12;7.20;99.90
52203;DHT22;38173;52.850;6.970;2024-01-27T12:33:38;7.20;99.90
52203;DHT22;38173;52.850;6.970;2024-01-27T12:36:07;7.30;99.90
52203;DHT22;38173;52.850;6.970;2024-01-27T12:38:33;7.40;99.90
52203;DHT22;38173;52.850;6.970;2024-01-27T12:40:59;7.40;99.90
52203;DHT22;38173;52.850;6.970;2024-01-27T12:43:24;7.50;99.90
52203;DHT22;38173;52.850;6.970;2024-01-27T12:45:53;7.50;99.90
52203;DHT22;38173;52.850;6.970;2024-01-27T12:48:21;7.50;99.90
52203;DHT22;38173;52.850;6.970;2024-01-27T12:50:46;7.50;99.90
52203;DHT22;38173;52.850;6.970;2024-01-27T12:53:15;7.50;99.90
52203;DHT22;38173;52.850;6.970;2024-01-27T12:55:42;7.60;99.90
52203;DHT22;38173;52.850;6.970;2024-01-27T12:58:07;7.60;99.90
52203;DHT22;38173;52.850;6.970;2024-01-27T13:00:33;7.60;99.90
52203;DHT22;38173;52.850;6.970;2024-01-27T13:02:59;7.60;99.90
52203;DHT22;38173;52.850;6.970;2024-01-27T13:05:25;7.60;99.90
52203;DHT22;38173;52.850;6.970;2024-01-27T13:07:51;7.60;99.90
52203;DHT22;38173;52.850;6.970;2024-01-27T13:10:17;7.60;99.90
52203;DHT22;38173;52.850;6.970;2024-01-27T13:12:45;7.60;99.90
52203;DHT22;38173;52.850;6.970;2024-01-27T13:15:10;7.60;99.90
52203;DHT22;38173;52.850;6.970;2024-01-27T13:17:37;7.60;99.90
52203;DHT22;38173;52.850;6.970;2024-01-27T13:20:03;7.70;99.90
52203;DHT22;38173;52.850;6.970;2024-01-27T13:22:30;7.70;99.90
52203;DHT22;38173;52.850;6.970;2024-01-27T13:24:56;7.70;99.90
52203;DHT22;38173;52.850;6.970;2024-01-27T13:27:23;7.60;99.90
52203;DHT22;38173;52.850;6.970;2024-01-27T13:29:49;7.60;99.90
52203;DHT22;38173;52.850;6.970;2024-01-27T13:32:15;7.70;99.90
52203;DHT22;38173;52.850;6.970;2024-01-27T13:34:41;7.60;99.90
52203;DHT22;38173;52.850;6.970;2024-01-27T13:37:06;7.60;99.90
52203;DHT22;38173;52.850;6.970;2024-01-27T13:39:32;7.60;99.90
52203;DHT22;38173;52.850;6.970;2024-01-27T13:41:57;7.60;99.90
52203;DHT22;38173;52.850;6.970;2024-01-27T13:44:23;7.70;99.90
52203;DHT22;38173;52.850;6.970;2024-01-27T13:46:49;7.70;99.90
52203;DHT22;38173;52.850;6.970;2024-01-27T13:49:14;7.70;99.90
52203;DHT22;38173;52.850;6.970;2024-01-27T13:51:40;7.80;99.90
52203;DHT22;38173;52.850;6.970;2024-01-27T13:54:06;7.80;99.90
52203;DHT22;38173;52.850;6.970;2024-01-27T13:56:35;7.90;99.90
52203;DHT22;38173;52.850;6.970;2024-01-27T13:59:01;8.00;99.90
52203;DHT22;38173;52.850;6.970;2024-01-27T14:01:29;8.20;99.90
52203;DHT22;38173;52.850;6.970;2024-01-27T14:03:55;8.40;99.90
52203;DHT22;38173;52.850;6.970;2024-01-27T14:06:20;8.40;99.90
52203;DHT22;38173;52.850;6.970;2024-01-27T14:08:46;8.40;99.90
52203;DHT22;38173;52.850;6.970;2024-01-27T14:11:12;8.30;99.90
52203;DHT22;38173;52.850;6.970;2024-01-27T14:13:37;8.20;99.90
52203;DHT22;38173;52.850;6.970;2024-01-27T14:16:03;8.20;99.90
52203;DHT22;38173;52.850;6.970;2024-01-27T14:18:29;8.20;99.90
52203;DHT22;38173;52.850;6.970;2024-01-27T14:20:56;8.10;99.90
52203;DHT22;38173;52.850;6.970;2024-01-27T14:23:22;8.00;99.90
52203;DHT22;38173;52.850;6.970;2024-01-27T14:25:48;7.90;99.90
52203;DHT22;38173;52.850;6.970;2024-01-27T14:28:14;7.90;99.90
52203;DHT22;38173;52.850;6.970;2024-01-27T14:30:40;7.80;99.90
52203;DHT22;38173;52.850;6.970;2024-01-27T14:33:06;7.80;99.90
52203;DHT22;38173;52.850;6.970;2024-01-27T14:35:32;7.70;99.90
52203;DHT22;38173;52.850;6.970;2024-01-27T14:37:58;7.70;99.90
52203;DHT22;38173;52.850;6.970;2024-01-27T14:40:24;7.60;99.90
52203;DHT22;38173;52.850;6.970;2024-01-27T14:42:52;7.60;99.90
52203;DHT22;38173;52.850;6.970;2024-01-27T14:45:17;7.50;99.90
52203;DHT22;38173;52.850;6.970;2024-01-27T14:47:43;7.40;99.90
52203;DHT22;38173;52.850;6.970;2024-01-27T14:50:09;7.40;99.90
52203;DHT22;38173;52.850;6.970;2024-01-27T14:52:35;7.30;99.90
52203;DHT22;38173;52.850;6.970;2024-01-27T14:55:00;7.30;99.90
52203;DHT22;38173;52.850;6.970;2024-01-27T14:57:26;7.20;99.90
52203;DHT22;38173;52.850;6.970;2024-01-27T14:59:52;7.20;99.90
52203;DHT22;38173;52.850;6.970;2024-01-27T15:02:17;7.20;99.90
52203;DHT22;38173;52.850;6.970;2024-01-27T15:04:43;7.10;99.90
52203;DHT22;38173;52.850;6.970;2024-01-27T15:07:09;7.10;99.90
52203;DHT22;38173;52.850;6.970;2024-01-27T15:09:35;7.10;99.90
52203;DHT22;38173;52.850;6.970;2024-01-27T15:12:00;7.10;99.90
52203;DHT22;38173;52.850;6.970;2024-01-27T15:14:26;7.00;99.90
52203;DHT22;38173;52.850;6.970;2024-01-27T15:16:52;7.00;99.90
52203;DHT22;38173;52.850;6.970;2024-01-27T15:19:18;6.90;99.90
52203;DHT22;38173;52.850;6.970;2024-01-27T15:21:44;6.90;99.90
52203;DHT22;38173;52.850;6.970;2024-01-27T15:24:11;6.80;99.90
52203;DHT22;38173;52.850;6.970;2024-01-27T15:26:36;6.70;99.90
52203;DHT22;38173;52.850;6.970;2024-01-27T15:29:02;6.60;99.90
52203;DHT22;38173;52.850;6.970;2024-01-27T15:31:28;6.60;99.90
52203;DHT22;38173;52.850;6.970;2024-01-27T15:33:54;6.50;99.90
52203;DHT22;38173;52.850;6.970;2024-01-27T15:36:19;6.40;99.90
52203;DHT22;38173;52.850;6.970;2024-01-27T15:38:45;6.30;99.90